sensor_id;sensor_type;location;lat;lon;timestamp;P1;P2;P0
70554;PMS5003;58104;52.744;15.242;2022-08-25T00:00:39;20;20;
70554;PMS5003;58104;52.744;15.242;2022-08-25T00:03:04;23;23;
70554;PMS5003;58104;52.744;15.242;2022-08-25T00:05:30;22;19;
70554;PMS5003;58104;52.744;15.242;2022-08-25T00:07:55;19;19;
70554;PMS5003;58104;52.744;15.242;2022-08-25T00:10:21;22;22;
70554;PMS5003;58104;52.744;15.242;2022-08-25T00:12:46;23;22;
70554;PMS5003;58104;52.744;15.242;2022-08-25T00:15:11;21;21;
70554;PMS5003;58104;52.744;15.242;2022-08-25T00:17:37;29;27;
70554;PMS5003;58104;52.744;15.242;2022-08-25T00:20:02;18;18;
70554;PMS5003;58104;52.744;15.242;2022-08-25T00:22:27;20;19;
70554;PMS5003;58104;52.744;15.242;2022-08-25T00:24:53;22;20;
70554;PMS5003;58104;52.744;15.242;2022-08-25T00:27:18;18;18;
70554;PMS5003;58104;52.744;15.242;2022-08-25T00:29:43;20;18;
70554;PMS5003;58104;52.744;15.242;2022-08-25T00:32:08;22;21;
70554;PMS5003;58104;52.744;15.242;2022-08-25T00:34:35;22;20;
70554;PMS5003;58104;52.744;15.242;2022-08-25T00:37:00;23;20;
70554;PMS5003;58104;52.744;15.242;2022-08-25T00:39:25;21;21;
70554;PMS5003;58104;52.744;15.242;2022-08-25T00:41:51;22;22;
70554;PMS5003;58104;52.744;15.242;2022-08-25T00:44:16;20;19;
70554;PMS5003;58104;52.744;15.242;2022-08-25T00:46:43;20;20;
70554;PMS5003;58104;52.744;15.242;2022-08-25T00:49:09;24;23;
70554;PMS5003;58104;52.744;15.242;2022-08-25T00:51:34;20;18;
70554;PMS5003;58104;52.744;15.242;2022-08-25T00:53:58;23;21;
70554;PMS5003;58104;52.744;15.242;2022-08-25T00:56:23;19;18;
70554;PMS5003;58104;52.744;15.242;2022-08-25T00:58:49;22;21;
70554;PMS5003;58104;52.744;15.242;2022-08-25T01:01:14;20;19;
70554;PMS5003;58104;52.744;15.242;2022-08-25T01:03:39;21;21;
70554;PMS5003;58104;52.744;15.242;2022-08-25T01:06:05;24;23;
70554;PMS5003;58104;52.744;15.242;2022-08-25T01:08:31;18;16;
70554;PMS5003;58104;52.744;15.242;2022-08-25T01:10:55;20;19;
70554;PMS5003;58104;52.744;15.242;2022-08-25T01:13:21;24;24;
70554;PMS5003;58104;52.744;15.242;2022-08-25T01:15:47;22;20;
70554;PMS5003;58104;52.744;15.242;2022-08-25T01:18:12;27;25;
70554;PMS5003;58104;52.744;15.242;2022-08-25T01:20:38;24;21;
70554;PMS5003;58104;52.744;15.242;2022-08-25T01:23:03;22;21;
70554;PMS5003;58104;52.744;15.242;2022-08-25T01:25:32;22;22;
70554;PMS5003;58104;52.744;15.242;2022-08-25T01:27:54;25;23;
70554;PMS5003;58104;52.744;15.242;2022-08-25T01:30:20;18;17;
70554;PMS5003;58104;52.744;15.242;2022-08-25T01:32:45;24;21;
70554;PMS5003;58104;52.744;15.242;2022-08-25T01:35:10;23;21;
70554;PMS5003;58104;52.744;15.242;2022-08-25T01:37:35;28;25;
70554;PMS5003;58104;52.744;15.242;2022-08-25T01:40:00;26;26;
70554;PMS5003;58104;52.744;15.242;2022-08-25T01:42:32;20;20;
70554;PMS5003;58104;52.744;15.242;2022-08-25T01:44:52;22;20;
70554;PMS5003;58104;52.744;15.242;2022-08-25T01:47:17;22;20;
70554;PMS5003;58104;52.744;15.242;2022-08-25T01:49:42;22;22;
70554;PMS5003;58104;52.744;15.242;2022-08-25T01:52:10;27;23;
70554;PMS5003;58104;52.744;15.242;2022-08-25T01:54:33;23;21;
70554;PMS5003;58104;52.744;15.242;2022-08-25T01:56:59;25;25;
70554;PMS5003;58104;52.744;15.242;2022-08-25T01:59:24;25;24;
70554;PMS5003;58104;52.744;15.242;2022-08-25T02:01:50;22;22;
70554;PMS5003;58104;52.744;15.242;2022-08-25T02:04:15;23;22;
70554;PMS5003;58104;52.744;15.242;2022-08-25T02:06:41;24;20;
70554;PMS5003;58104;52.744;15.242;2022-08-25T02:09:08;30;21;
70554;PMS5003;58104;52.744;15.242;2022-08-25T02:11:31;28;26;
70554;PMS5003;58104;52.744;15.242;2022-08-25T02:13:56;25;22;
70554;PMS5003;58104;52.744;15.242;2022-08-25T02:16:24;25;25;
70554;PMS5003;58104;52.744;15.242;2022-08-25T02:18:47;22;22;
70554;PMS5003;58104;52.744;15.242;2022-08-25T02:21:13;28;23;
70554;PMS5003;58104;52.744;15.242;2022-08-25T02:23:38;28;28;
70554;PMS5003;58104;52.744;15.242;2022-08-25T02:26:04;26;25;
70554;PMS5003;58104;52.744;15.242;2022-08-25T02:28:29;22;22;
70554;PMS5003;58104;52.744;15.242;2022-08-25T02:30:54;26;26;
70554;PMS5003;58104;52.744;15.242;2022-08-25T02:33:19;29;28;
70554;PMS5003;58104;52.744;15.242;2022-08-25T02:35:44;24;22;
70554;PMS5003;58104;52.744;15.242;2022-08-25T02:38:09;21;20;
70554;PMS5003;58104;52.744;15.242;2022-08-25T02:40:35;28;23;
70554;PMS5003;58104;52.744;15.242;2022-08-25T02:43:00;21;20;
70554;PMS5003;58104;52.744;15.242;2022-08-25T02:45:25;21;21;
70554;PMS5003;58104;52.744;15.242;2022-08-25T02:47:50;20;20;
70554;PMS5003;58104;52.744;15.242;2022-08-25T02:50:16;21;21;
70554;PMS5003;58104;52.744;15.242;2022-08-25T02:52:41;23;23;
70554;PMS5003;58104;52.744;15.242;2022-08-25T02:55:07;23;22;
70554;PMS5003;58104;52.744;15.242;2022-08-25T02:57:31;32;27;
70554;PMS5003;58104;52.744;15.242;2022-08-25T02:59:57;22;22;
70554;PMS5003;58104;52.744;15.242;2022-08-25T03:02:22;23;23;
70554;PMS5003;58104;52.744;15.242;2022-08-25T03:04:48;21;21;
70554;PMS5003;58104;52.744;15.242;2022-08-25T03:07:13;25;24;
70554;PMS5003;58104;52.744;15.242;2022-08-25T03:09:38;27;26;
70554;PMS5003;58104;52.744;15.242;2022-08-25T03:12:03;25;21;
70554;PMS5003;58104;52.744;15.242;2022-08-25T03:14:28;24;24;
70554;PMS5003;58104;52.744;15.242;2022-08-25T03:16:54;19;19;
70554;PMS5003;58104;52.744;15.242;2022-08-25T03:19:19;24;23;
70554;PMS5003;58104;52.744;15.242;2022-08-25T03:21:45;22;22;
70554;PMS5003;58104;52.744;15.242;2022-08-25T03:24:10;23;21;
70554;PMS5003;58104;52.744;15.242;2022-08-25T03:26:35;27;27;
70554;PMS5003;58104;52.744;15.242;2022-08-25T03:29:00;27;26;
70554;PMS5003;58104;52.744;15.242;2022-08-25T03:31:25;23;23;
70554;PMS5003;58104;52.744;15.242;2022-08-25T03:33:51;26;23;
70554;PMS5003;58104;52.744;15.242;2022-08-25T03:36:16;25;20;
70554;PMS5003;58104;52.744;15.242;2022-08-25T03:38:42;22;22;
70554;PMS5003;58104;52.744;15.242;2022-08-25T03:41:11;27;27;
70554;PMS5003;58104;52.744;15.242;2022-08-25T03:43:32;26;23;
70554;PMS5003;58104;52.744;15.242;2022-08-25T03:45:58;28;26;
70554;PMS5003;58104;52.744;15.242;2022-08-25T03:48:23;25;25;
70554;PMS5003;58104;52.744;15.242;2022-08-25T03:50:49;27;23;
70554;PMS5003;58104;52.744;15.242;2022-08-25T03:53:14;26;24;
70554;PMS5003;58104;52.744;15.242;2022-08-25T03:55:39;26;24;
70554;PMS5003;58104;52.744;15.242;2022-08-25T03:58:04;29;26;
70554;PMS5003;58104;52.744;15.242;2022-08-25T04:00:30;21;21;
70554;PMS5003;58104;52.744;15.242;2022-08-25T04:02:55;27;27;
70554;PMS5003;58104;52.744;15.242;2022-08-25T04:05:21;26;26;
70554;PMS5003;58104;52.744;15.242;2022-08-25T04:07:46;30;27;
70554;PMS5003;58104;52.744;15.242;2022-08-25T04:10:12;29;24;
70554;PMS5003;58104;52.744;15.242;2022-08-25T04:12:37;32;28;
70554;PMS5003;58104;52.744;15.242;2022-08-25T04:15:03;26;24;
70554;PMS5003;58104;52.744;15.242;2022-08-25T04:17:28;26;25;
70554;PMS5003;58104;52.744;15.242;2022-08-25T04:19:53;35;31;
70554;PMS5003;58104;52.744;15.242;2022-08-25T04:22:18;25;25;
70554;PMS5003;58104;52.744;15.242;2022-08-25T04:24:43;29;27;
70554;PMS5003;58104;52.744;15.242;2022-08-25T04:27:09;35;29;
70554;PMS5003;58104;52.744;15.242;2022-08-25T04:29:34;27;22;
70554;PMS5003;58104;52.744;15.242;2022-08-25T04:31:59;25;25;
70554;PMS5003;58104;52.744;15.242;2022-08-25T04:34:26;31;27;
70554;PMS5003;58104;52.744;15.242;2022-08-25T04:36:50;29;28;
70554;PMS5003;58104;52.744;15.242;2022-08-25T04:39:16;30;27;
70554;PMS5003;58104;52.744;15.242;2022-08-25T04:41:42;31;28;
70554;PMS5003;58104;52.744;15.242;2022-08-25T04:44:07;33;29;
70554;PMS5003;58104;52.744;15.242;2022-08-25T04:46:33;28;28;
70554;PMS5003;58104;52.744;15.242;2022-08-25T04:48:59;26;26;
70554;PMS5003;58104;52.744;15.242;2022-08-25T04:51:24;29;29;
70554;PMS5003;58104;52.744;15.242;2022-08-25T04:53:49;33;28;
70554;PMS5003;58104;52.744;15.242;2022-08-25T04:56:15;30;27;
70554;PMS5003;58104;52.744;15.242;2022-08-25T04:58:40;24;24;
70554;PMS5003;58104;52.744;15.242;2022-08-25T05:01:06;32;32;
70554;PMS5003;58104;52.744;15.242;2022-08-25T05:03:31;28;26;
70554;PMS5003;58104;52.744;15.242;2022-08-25T05:05:56;29;28;
70554;PMS5003;58104;52.744;15.242;2022-08-25T05:08:21;30;29;
70554;PMS5003;58104;52.744;15.242;2022-08-25T05:10:47;29;24;
70554;PMS5003;58104;52.744;15.242;2022-08-25T05:13:13;25;25;
70554;PMS5003;58104;52.744;15.242;2022-08-25T05:15:42;29;29;
70554;PMS5003;58104;52.744;15.242;2022-08-25T05:18:04;34;28;
70554;PMS5003;58104;52.744;15.242;2022-08-25T05:20:29;33;30;
70554;PMS5003;58104;52.744;15.242;2022-08-25T05:22:55;28;27;
70554;PMS5003;58104;52.744;15.242;2022-08-25T05:25:20;26;23;
70554;PMS5003;58104;52.744;15.242;2022-08-25T05:27:45;29;26;
70554;PMS5003;58104;52.744;15.242;2022-08-25T05:30:12;29;27;
70554;PMS5003;58104;52.744;15.242;2022-08-25T05:32:37;29;26;
70554;PMS5003;58104;52.744;15.242;2022-08-25T05:35:03;29;22;
70554;PMS5003;58104;52.744;15.242;2022-08-25T05:37:27;26;25;
70554;PMS5003;58104;52.744;15.242;2022-08-25T05:39:52;29;29;
70554;PMS5003;58104;52.744;15.242;2022-08-25T05:42:18;27;26;
70554;PMS5003;58104;52.744;15.242;2022-08-25T05:44:43;29;27;
70554;PMS5003;58104;52.744;15.242;2022-08-25T05:47:08;31;30;
70554;PMS5003;58104;52.744;15.242;2022-08-25T05:49:34;29;26;
70554;PMS5003;58104;52.744;15.242;2022-08-25T05:51:59;28;27;
70554;PMS5003;58104;52.744;15.242;2022-08-25T05:54:24;25;25;
70554;PMS5003;58104;52.744;15.242;2022-08-25T05:56:50;30;29;
70554;PMS5003;58104;52.744;15.242;2022-08-25T05:59:15;30;29;
70554;PMS5003;58104;52.744;15.242;2022-08-25T06:01:40;28;27;
70554;PMS5003;58104;52.744;15.242;2022-08-25T06:04:06;31;27;
70554;PMS5003;58104;52.744;15.242;2022-08-25T06:06:32;24;24;
70554;PMS5003;58104;52.744;15.242;2022-08-25T06:08:57;31;24;
70554;PMS5003;58104;52.744;15.242;2022-08-25T06:11:22;25;25;
70554;PMS5003;58104;52.744;15.242;2022-08-25T06:13:47;29;28;
70554;PMS5003;58104;52.744;15.242;2022-08-25T06:16:13;31;29;
70554;PMS5003;58104;52.744;15.242;2022-08-25T06:18:38;29;29;
70554;PMS5003;58104;52.744;15.242;2022-08-25T06:21:06;28;25;
70554;PMS5003;58104;52.744;15.242;2022-08-25T06:23:29;33;30;
70554;PMS5003;58104;52.744;15.242;2022-08-25T06:25:55;25;25;
70554;PMS5003;58104;52.744;15.242;2022-08-25T06:28:20;28;27;
70554;PMS5003;58104;52.744;15.242;2022-08-25T06:30:46;29;29;
70554;PMS5003;58104;52.744;15.242;2022-08-25T06:33:12;23;23;
70554;PMS5003;58104;52.744;15.242;2022-08-25T06:35:39;25;25;
70554;PMS5003;58104;52.744;15.242;2022-08-25T06:38:02;24;24;
70554;PMS5003;58104;52.744;15.242;2022-08-25T06:40:28;22;19;
70554;PMS5003;58104;52.744;15.242;2022-08-25T06:42:53;25;23;
70554;PMS5003;58104;52.744;15.242;2022-08-25T06:45:19;22;22;
70554;PMS5003;58104;52.744;15.242;2022-08-25T06:47:44;25;24;
70554;PMS5003;58104;52.744;15.242;2022-08-25T06:50:10;23;21;
70554;PMS5003;58104;52.744;15.242;2022-08-25T06:52:35;27;27;
70554;PMS5003;58104;52.744;15.242;2022-08-25T06:55:00;31;30;
70554;PMS5003;58104;52.744;15.242;2022-08-25T06:57:26;30;26;
70554;PMS5003;58104;52.744;15.242;2022-08-25T06:59:51;26;23;
70554;PMS5003;58104;52.744;15.242;2022-08-25T07:02:17;32;27;
70554;PMS5003;58104;52.744;15.242;2022-08-25T07:04:42;27;27;
70554;PMS5003;58104;52.744;15.242;2022-08-25T07:07:07;24;24;
70554;PMS5003;58104;52.744;15.242;2022-08-25T07:09:32;24;24;
70554;PMS5003;58104;52.744;15.242;2022-08-25T07:11:58;24;24;
70554;PMS5003;58104;52.744;15.242;2022-08-25T07:14:23;23;20;
70554;PMS5003;58104;52.744;15.242;2022-08-25T07:16:48;29;26;
70554;PMS5003;58104;52.744;15.242;2022-08-25T07:19:14;22;22;
70554;PMS5003;58104;52.744;15.242;2022-08-25T07:21:40;29;24;
70554;PMS5003;58104;52.744;15.242;2022-08-25T07:24:05;30;29;
70554;PMS5003;58104;52.744;15.242;2022-08-25T07:26:31;31;30;
70554;PMS5003;58104;52.744;15.242;2022-08-25T07:28:56;29;28;
70554;PMS5003;58104;52.744;15.242;2022-08-25T07:31:21;27;27;
70554;PMS5003;58104;52.744;15.242;2022-08-25T07:33:46;22;20;
70554;PMS5003;58104;52.744;15.242;2022-08-25T07:36:12;31;30;
70554;PMS5003;58104;52.744;15.242;2022-08-25T07:38:37;27;27;
70554;PMS5003;58104;52.744;15.242;2022-08-25T07:41:03;36;34;
70554;PMS5003;58104;52.744;15.242;2022-08-25T07:43:29;27;25;
70554;PMS5003;58104;52.744;15.242;2022-08-25T07:45:54;25;23;
70554;PMS5003;58104;52.744;15.242;2022-08-25T07:48:20;29;28;
70554;PMS5003;58104;52.744;15.242;2022-08-25T07:50:46;26;24;
70554;PMS5003;58104;52.744;15.242;2022-08-25T07:53:10;29;27;
70554;PMS5003;58104;52.744;15.242;2022-08-25T07:55:37;31;28;
70554;PMS5003;58104;52.744;15.242;2022-08-25T07:58:02;30;28;
70554;PMS5003;58104;52.744;15.242;2022-08-25T08:00:26;23;23;
70554;PMS5003;58104;52.744;15.242;2022-08-25T08:02:52;29;24;
70554;PMS5003;58104;52.744;15.242;2022-08-25T08:05:17;28;25;
70554;PMS5003;58104;52.744;15.242;2022-08-25T08:07:43;26;25;
70554;PMS5003;58104;52.744;15.242;2022-08-25T08:10:09;25;25;
70554;PMS5003;58104;52.744;15.242;2022-08-25T08:12:34;31;31;
70554;PMS5003;58104;52.744;15.242;2022-08-25T08:14:59;29;27;
70554;PMS5003;58104;52.744;15.242;2022-08-25T08:17:24;32;27;
70554;PMS5003;58104;52.744;15.242;2022-08-25T08:19:49;29;27;
70554;PMS5003;58104;52.744;15.242;2022-08-25T08:22:15;30;27;
70554;PMS5003;58104;52.744;15.242;2022-08-25T08:24:41;27;26;
70554;PMS5003;58104;52.744;15.242;2022-08-25T08:27:06;27;24;
70554;PMS5003;58104;52.744;15.242;2022-08-25T08:29:31;28;26;
70554;PMS5003;58104;52.744;15.242;2022-08-25T08:31:56;30;30;
70554;PMS5003;58104;52.744;15.242;2022-08-25T08:34:22;30;28;
70554;PMS5003;58104;52.744;15.242;2022-08-25T08:36:47;30;27;
70554;PMS5003;58104;52.744;15.242;2022-08-25T08:39:12;27;27;
70554;PMS5003;58104;52.744;15.242;2022-08-25T08:41:43;38;31;
70554;PMS5003;58104;52.744;15.242;2022-08-25T08:44:05;28;27;
70554;PMS5003;58104;52.744;15.242;2022-08-25T08:46:30;43;35;
70554;PMS5003;58104;52.744;15.242;2022-08-25T08:48:56;30;30;
70554;PMS5003;58104;52.744;15.242;2022-08-25T08:51:20;30;30;
70554;PMS5003;58104;52.744;15.242;2022-08-25T08:53:46;27;27;
70554;PMS5003;58104;52.744;15.242;2022-08-25T08:56:10;31;27;
70554;PMS5003;58104;52.744;15.242;2022-08-25T08:58:38;35;32;
70554;PMS5003;58104;52.744;15.242;2022-08-25T09:01:01;23;22;
70554;PMS5003;58104;52.744;15.242;2022-08-25T09:03:28;26;24;
70554;PMS5003;58104;52.744;15.242;2022-08-25T09:05:52;28;25;
70554;PMS5003;58104;52.744;15.242;2022-08-25T09:08:16;35;32;
70554;PMS5003;58104;52.744;15.242;2022-08-25T09:10:47;27;27;
70554;PMS5003;58104;52.744;15.242;2022-08-25T09:13:08;30;30;
70554;PMS5003;58104;52.744;15.242;2022-08-25T09:15:34;30;30;
70554;PMS5003;58104;52.744;15.242;2022-08-25T09:18:03;30;30;
70554;PMS5003;58104;52.744;15.242;2022-08-25T09:22:51;30;27;
70554;PMS5003;58104;52.744;15.242;2022-08-25T09:25:15;29;27;
70554;PMS5003;58104;52.744;15.242;2022-08-25T09:27:40;30;24;
70554;PMS5003;58104;52.744;15.242;2022-08-25T09:30:06;26;25;
70554;PMS5003;58104;52.744;15.242;2022-08-25T09:32:31;28;26;
70554;PMS5003;58104;52.744;15.242;2022-08-25T09:34:55;33;31;
70554;PMS5003;58104;52.744;15.242;2022-08-25T09:37:21;31;30;
70554;PMS5003;58104;52.744;15.242;2022-08-25T09:39:47;28;27;
70554;PMS5003;58104;52.744;15.242;2022-08-25T09:42:12;23;23;
70554;PMS5003;58104;52.744;15.242;2022-08-25T09:44:39;29;25;
70554;PMS5003;58104;52.744;15.242;2022-08-25T09:47:04;28;27;
70554;PMS5003;58104;52.744;15.242;2022-08-25T09:49:31;26;24;
70554;PMS5003;58104;52.744;15.242;2022-08-25T09:51:53;32;27;
70554;PMS5003;58104;52.744;15.242;2022-08-25T09:54:19;27;26;
70554;PMS5003;58104;52.744;15.242;2022-08-25T09:56:47;30;28;
70554;PMS5003;58104;52.744;15.242;2022-08-25T10:01:34;24;23;
70554;PMS5003;58104;52.744;15.242;2022-08-25T10:04:01;27;26;
70554;PMS5003;58104;52.744;15.242;2022-08-25T10:06:27;26;24;
70554;PMS5003;58104;52.744;15.242;2022-08-25T10:08:52;34;33;
70554;PMS5003;58104;52.744;15.242;2022-08-25T10:11:30;27;25;
70554;PMS5003;58104;52.744;15.242;2022-08-25T10:13:43;27;26;
70554;PMS5003;58104;52.744;15.242;2022-08-25T10:16:09;26;25;
70554;PMS5003;58104;52.744;15.242;2022-08-25T10:18:32;29;28;
70554;PMS5003;58104;52.744;15.242;2022-08-25T10:23:22;26;25;
70554;PMS5003;58104;52.744;15.242;2022-08-25T10:25:48;29;29;
70554;PMS5003;58104;52.744;15.242;2022-08-25T10:28:14;22;22;
70554;PMS5003;58104;52.744;15.242;2022-08-25T10:30:44;25;22;
70554;PMS5003;58104;52.744;15.242;2022-08-25T10:33:09;24;23;
70554;PMS5003;58104;52.744;15.242;2022-08-25T10:35:29;26;25;
70554;PMS5003;58104;52.744;15.242;2022-08-25T10:37:58;29;29;
70554;PMS5003;58104;52.744;15.242;2022-08-25T10:40:21;34;28;
70554;PMS5003;58104;52.744;15.242;2022-08-25T10:42:48;26;26;
70554;PMS5003;58104;52.744;15.242;2022-08-25T10:45:13;25;24;
70554;PMS5003;58104;52.744;15.242;2022-08-25T10:47:41;25;24;
70554;PMS5003;58104;52.744;15.242;2022-08-25T10:50:03;21;21;
70554;PMS5003;58104;52.744;15.242;2022-08-25T10:52:28;21;20;
70554;PMS5003;58104;52.744;15.242;2022-08-25T10:54:54;23;23;
70554;PMS5003;58104;52.744;15.242;2022-08-25T10:57:18;22;22;
70554;PMS5003;58104;52.744;15.242;2022-08-25T10:59:46;24;22;
70554;PMS5003;58104;52.744;15.242;2022-08-25T11:02:11;25;22;
70554;PMS5003;58104;52.744;15.242;2022-08-25T11:04:34;22;22;
70554;PMS5003;58104;52.744;15.242;2022-08-25T11:06:59;24;24;
70554;PMS5003;58104;52.744;15.242;2022-08-25T11:09:25;26;25;
70554;PMS5003;58104;52.744;15.242;2022-08-25T11:11:51;26;23;
70554;PMS5003;58104;52.744;15.242;2022-08-25T11:14:16;25;20;
70554;PMS5003;58104;52.744;15.242;2022-08-25T11:16:42;24;22;
70554;PMS5003;58104;52.744;15.242;2022-08-25T11:19:08;19;19;
70554;PMS5003;58104;52.744;15.242;2022-08-25T11:21:33;22;20;
70554;PMS5003;58104;52.744;15.242;2022-08-25T11:23:57;23;20;
70554;PMS5003;58104;52.744;15.242;2022-08-25T11:26:24;25;22;
70554;PMS5003;58104;52.744;15.242;2022-08-25T11:28:50;22;20;
70554;PMS5003;58104;52.744;15.242;2022-08-25T11:31:13;23;20;
70554;PMS5003;58104;52.744;15.242;2022-08-25T11:33:38;26;24;
70554;PMS5003;58104;52.744;15.242;2022-08-25T11:36:04;22;20;
70554;PMS5003;58104;52.744;15.242;2022-08-25T11:38:34;18;18;
70554;PMS5003;58104;52.744;15.242;2022-08-25T11:40:58;21;19;
70554;PMS5003;58104;52.744;15.242;2022-08-25T11:43:27;21;20;
70554;PMS5003;58104;52.744;15.242;2022-08-25T11:45:49;27;27;
70554;PMS5003;58104;52.744;15.242;2022-08-25T11:48:14;23;23;
70554;PMS5003;58104;52.744;15.242;2022-08-25T11:50:52;23;21;
70554;PMS5003;58104;52.744;15.242;2022-08-25T11:53:13;21;18;
70554;PMS5003;58104;52.744;15.242;2022-08-25T11:55:29;19;19;
70554;PMS5003;58104;52.744;15.242;2022-08-25T12:02:44;21;21;
70554;PMS5003;58104;52.744;15.242;2022-08-25T12:05:10;21;19;
70554;PMS5003;58104;52.744;15.242;2022-08-25T12:12:26;19;16;
70554;PMS5003;58104;52.744;15.242;2022-08-25T12:14:50;23;19;
70554;PMS5003;58104;52.744;15.242;2022-08-25T12:17:20;21;19;
70554;PMS5003;58104;52.744;15.242;2022-08-25T12:26:57;22;19;
70554;PMS5003;58104;52.744;15.242;2022-08-25T12:29:25;21;20;
70554;PMS5003;58104;52.744;15.242;2022-08-25T12:34:17;20;18;
70554;PMS5003;58104;52.744;15.242;2022-08-25T12:36:38;20;20;
70554;PMS5003;58104;52.744;15.242;2022-08-25T12:39:08;21;21;
70554;PMS5003;58104;52.744;15.242;2022-08-25T12:41:29;19;19;
70554;PMS5003;58104;52.744;15.242;2022-08-25T12:44:07;22;20;
70554;PMS5003;58104;52.744;15.242;2022-08-25T12:51:15;22;20;
70554;PMS5003;58104;52.744;15.242;2022-08-25T12:53:38;21;19;
70554;PMS5003;58104;52.744;15.242;2022-08-25T12:56:05;22;20;
70554;PMS5003;58104;52.744;15.242;2022-08-25T12:58:33;21;20;
70554;PMS5003;58104;52.744;15.242;2022-08-25T13:00:57;16;16;
70554;PMS5003;58104;52.744;15.242;2022-08-25T13:03:23;18;16;
70554;PMS5003;58104;52.744;15.242;2022-08-25T13:10:40;20;20;
70554;PMS5003;58104;52.744;15.242;2022-08-25T13:13:02;22;19;
70554;PMS5003;58104;52.744;15.242;2022-08-25T13:15:31;18;15;
70554;PMS5003;58104;52.744;15.242;2022-08-25T13:17:51;17;17;
70554;PMS5003;58104;52.744;15.242;2022-08-25T13:20:17;24;21;
70554;PMS5003;58104;52.744;15.242;2022-08-25T13:22:43;16;16;
70554;PMS5003;58104;52.744;15.242;2022-08-25T13:27:33;19;19;
70554;PMS5003;58104;52.744;15.242;2022-08-25T13:29:58;18;18;
70554;PMS5003;58104;52.744;15.242;2022-08-25T13:32:25;23;18;
70554;PMS5003;58104;52.744;15.242;2022-08-25T13:34:49;20;19;
70554;PMS5003;58104;52.744;15.242;2022-08-25T13:37:17;23;23;
70554;PMS5003;58104;52.744;15.242;2022-08-25T13:39:40;20;20;
70554;PMS5003;58104;52.744;15.242;2022-08-25T13:42:11;24;22;
70554;PMS5003;58104;52.744;15.242;2022-08-25T13:44:33;20;19;
70554;PMS5003;58104;52.744;15.242;2022-08-25T13:49:24;21;20;
70554;PMS5003;58104;52.744;15.242;2022-08-25T13:51:50;18;17;
70554;PMS5003;58104;52.744;15.242;2022-08-25T13:56:39;22;21;
70554;PMS5003;58104;52.744;15.242;2022-08-25T13:59:05;20;18;
70554;PMS5003;58104;52.744;15.242;2022-08-25T14:01:30;21;21;
70554;PMS5003;58104;52.744;15.242;2022-08-25T14:03:56;19;16;
70554;PMS5003;58104;52.744;15.242;2022-08-25T14:06:21;19;19;
70554;PMS5003;58104;52.744;15.242;2022-08-25T14:08:47;20;20;
70554;PMS5003;58104;52.744;15.242;2022-08-25T14:11:13;21;20;
70554;PMS5003;58104;52.744;15.242;2022-08-25T14:13:38;19;19;
70554;PMS5003;58104;52.744;15.242;2022-08-25T14:16:06;24;22;
70554;PMS5003;58104;52.744;15.242;2022-08-25T14:18:29;20;20;
70554;PMS5003;58104;52.744;15.242;2022-08-25T14:20:53;19;19;
70554;PMS5003;58104;52.744;15.242;2022-08-25T14:23:20;18;18;
70554;PMS5003;58104;52.744;15.242;2022-08-25T14:25:45;27;24;
70554;PMS5003;58104;52.744;15.242;2022-08-25T14:28:11;23;23;
70554;PMS5003;58104;52.744;15.242;2022-08-25T14:30:38;25;24;
70554;PMS5003;58104;52.744;15.242;2022-08-25T14:33:01;22;20;
70554;PMS5003;58104;52.744;15.242;2022-08-25T14:35:26;26;24;
70554;PMS5003;58104;52.744;15.242;2022-08-25T14:37:52;26;25;
70554;PMS5003;58104;52.744;15.242;2022-08-25T14:40:18;20;20;
70554;PMS5003;58104;52.744;15.242;2022-08-25T14:42:44;18;18;
70554;PMS5003;58104;52.744;15.242;2022-08-25T14:45:09;21;20;
70554;PMS5003;58104;52.744;15.242;2022-08-25T14:47:34;20;19;
70554;PMS5003;58104;52.744;15.242;2022-08-25T14:49:59;18;17;
70554;PMS5003;58104;52.744;15.242;2022-08-25T14:52:26;24;22;
70554;PMS5003;58104;52.744;15.242;2022-08-25T14:54:50;21;21;
70554;PMS5003;58104;52.744;15.242;2022-08-25T14:57:15;23;20;
70554;PMS5003;58104;52.744;15.242;2022-08-25T14:59:41;23;19;
70554;PMS5003;58104;52.744;15.242;2022-08-25T15:02:06;18;18;
70554;PMS5003;58104;52.744;15.242;2022-08-25T15:04:31;21;21;
70554;PMS5003;58104;52.744;15.242;2022-08-25T15:06:57;21;21;
70554;PMS5003;58104;52.744;15.242;2022-08-25T15:09:22;17;17;
70554;PMS5003;58104;52.744;15.242;2022-08-25T15:11:48;22;19;
70554;PMS5003;58104;52.744;15.242;2022-08-25T15:14:13;24;23;
70554;PMS5003;58104;52.744;15.242;2022-08-25T15:16:38;23;22;
70554;PMS5003;58104;52.744;15.242;2022-08-25T15:19:03;24;22;
70554;PMS5003;58104;52.744;15.242;2022-08-25T15:21:28;20;19;
70554;PMS5003;58104;52.744;15.242;2022-08-25T15:23:54;20;18;
70554;PMS5003;58104;52.744;15.242;2022-08-25T15:26:20;26;26;
70554;PMS5003;58104;52.744;15.242;2022-08-25T15:28:46;21;19;
70554;PMS5003;58104;52.744;15.242;2022-08-25T15:31:10;23;21;
70554;PMS5003;58104;52.744;15.242;2022-08-25T15:33:36;25;22;
70554;PMS5003;58104;52.744;15.242;2022-08-25T15:36:01;23;23;
70554;PMS5003;58104;52.744;15.242;2022-08-25T15:38:26;21;20;
70554;PMS5003;58104;52.744;15.242;2022-08-25T15:40:52;21;20;
70554;PMS5003;58104;52.744;15.242;2022-08-25T15:43:18;25;25;
70554;PMS5003;58104;52.744;15.242;2022-08-25T15:45:44;21;21;
70554;PMS5003;58104;52.744;15.242;2022-08-25T15:48:09;20;18;
70554;PMS5003;58104;52.744;15.242;2022-08-25T15:50:34;22;21;
70554;PMS5003;58104;52.744;15.242;2022-08-25T15:53:00;27;19;
70554;PMS5003;58104;52.744;15.242;2022-08-25T15:55:25;23;21;
70554;PMS5003;58104;52.744;15.242;2022-08-25T15:57:50;24;21;
70554;PMS5003;58104;52.744;15.242;2022-08-25T16:00:16;24;24;
70554;PMS5003;58104;52.744;15.242;2022-08-25T16:02:40;24;22;
70554;PMS5003;58104;52.744;15.242;2022-08-25T16:05:06;22;20;
70554;PMS5003;58104;52.744;15.242;2022-08-25T16:07:31;24;20;
70554;PMS5003;58104;52.744;15.242;2022-08-25T16:09:57;23;22;
70554;PMS5003;58104;52.744;15.242;2022-08-25T16:12:22;22;20;
70554;PMS5003;58104;52.744;15.242;2022-08-25T16:14:47;25;24;
70554;PMS5003;58104;52.744;15.242;2022-08-25T16:17:12;20;20;
70554;PMS5003;58104;52.744;15.242;2022-08-25T16:19:38;22;22;
70554;PMS5003;58104;52.744;15.242;2022-08-25T16:22:04;22;22;
70554;PMS5003;58104;52.744;15.242;2022-08-25T16:24:29;28;26;
70554;PMS5003;58104;52.744;15.242;2022-08-25T16:26:55;21;21;
70554;PMS5003;58104;52.744;15.242;2022-08-25T16:29:20;26;26;
70554;PMS5003;58104;52.744;15.242;2022-08-25T16:31:46;29;25;